Absecon Heights, New Jersey
Current Conditions -  °F | °C
As of 3:54 PM on Tuesday 21 Oct 2014 (Local Time) from KACY Reporting Station
Clear Clear  
Wind Chill: 68°   Ceiling: Unl
Heat Index: 68°   Visibility: 10mi
Dew Point: 52°   Wind: 6mph
Humidity: 56%   Direction: 160°SSE
Pressure: 29.8"   Gusts: NA
Location:  39.4315°N, 74.5003°W
Report Text: KACY 211954Z 16005KT 10SM CLR 20/11 A2980 RMK AO2 SLP090 T02000111
Loading
Personal Weather Stations






























Interactive Weather Map
Tropical Storm Tracking
New forecast layout! Learn more

10-Day Weather Forecast

Advertisements
Track Severe Weather on mobile